Round Mountain, TX (78663)

3:12 PM CDT on August 25, 2016 (GMT -0500)
Cat Canyon Road | | Change Station

Elev 944 ft 30.53 °N, 98.40 °W | Updated 4 minutes ago

Clear
Clear
88.7 °F
Feels Like 96 °F
N
6.2
Wind Variable Wind from SW
Gusts 23.0 mph

Today
High -- | Low -- °F
--% Chance of Precip.
Yesterday
High -- | Low -- °F
Precip. -- in
Pressure 30.06 in
Visibility 10.0 miles
Clouds Clear
Heat Index 96 °F
Dew Point 73 °F
Humidity 59%
Rainfall 0.00 in
Snow Depth Not available.
7:06 AM 8:04 PM
Last Quarter, 42% visible
METAR KDZB 251955Z AUTO 19003KT 10SM CLR 33/18 A3006 RMK AO2 T03300177
Pressure 30.06 in
Visibility 10.0 miles
Clouds Clear
Heat Index 96 °F
Dew Point 73 °F
Humidity 59%
Rainfall 0.00 in
Snow Depth Not available.
7:06 AM 8:04 PM
Last Quarter, 42% visible
METAR KDZB 251955Z AUTO 19003KT 10SM CLR 33/18 A3006 RMK AO2 T03300177
A tropical disturbance pushing toward the Bahamas, is expected to develop into a tropical depression or storm, and will likely target Florida and the Gulf Coast this weekend into next week.

Right now, the disturbance remains a broad area of low pressure pushing through the Dominican Republic and Haiti, headed toward the southeast Bahamas. Rainfall totals over 3 inches (with locally higher amounts) are expected in HispaƱiola, particularly over elevated terrain.

10-Day Weather Forecast

Almanac

Astronomy

Aug. 25, 2016 Rise Set
Actual Time
Civil Twilight
Nautical Twilight
Astronomical Twilight
Moon
Length of Visible Light
Length of Day
Tomorrow will be .
, % of the Moon is Illuminated

Today's Extremes

State Highs State Lows

Community

WunderPhotos

Upload Photos

1,934,921 photos uploaded!

WunderBlog® & News

Nearby

Air Quality

  Air Quality AQ Index Pollutant
Not available.

Snow Depth

Station Depth Elevation

Earthquake Activity

City Distance Mag. Time & Date
Minimum magnitude displayed is 2.5.

Coastal Water Temperatures

Place Temperature

Stations

Nearby Weather Stations

Station Location Temp. Windchill Dew Point Humidity Wind Precip. Elev Updated Type
                   

Watches & Warnings

There are currently no watches in effect.